Ana Sayfa
METAR-TAF:

METAR-TAF

Havaalanları :

Konya, Türkiye

Konya Havalimanı

Enlem: 37-58N, Boylam: 032-33E, yükseklik: 1032 m

Güncel hava durumu gözlemi

Rapor saat 13:50 UTC de 56 dakika önce yapıldı.
Rüzgar güney/güneydoğudan 4 kt, doğu ve güneybatı arasında değişken
Sıcaklık 13°C
Nem 38%
Basınç 1009 hPa
Görüş mesafesi 10 km veya daha fazla
4000 ft yükseklikte parçalı bulutlu
20000 ft yükseklikte parçalı bulutlu

METAR: LTAN 231350Z 16004KT 080V220 9999 SCT040 SCT200 13/M01 Q1009 NOSIG

Saat: 17:46 (14:46 UTC)

Tahmin

Rapor saat 13:40 UTC de 1 saat ve 6 dakika önce yapıldı.
Ayın 23'si saat 15 UTC'den ayın 23'si saat 24 UTC'ye kadar geçerli Tahmin
Rüzgar değişken yönden 2 kt
Görüş mesafesi 10 km veya daha fazla
4000 ft yükseklikte parçalı bulutlu

TAF: LTAN 231340Z 2315/2324 VRB02KT 9999 SCT040

4.000'den fazla havaalanı için hava durumu gözlemleri ve tahminleri (METAR ve TAF raporları).

Kullanılabilir istasyonlar harita üzerinde sarı ve kırmızı noktalarla gösterilir.

İstasyonun adını görmek için fareyi noktanın üzerinde gezdirin.

Sonrasında hava gözlem ve tahminlerini görmek için tıklayın.

Haritayı değiştirmek için: yaklaştırmak için siyah artı işaretli yeşil düğmeye ve uzaklaştırmak için de eksi işaretli düğmeye hızla tıklayın; bitişik haritalar için yeşil okları kullanın.


METAR-TAF: